Time,TemperatureF,DewpointF,PressureIn,WindDirection,WindDirectionDegrees,WindSpeedMPH,WindSpeedGustMPH,Humidity,HourlyPrecipIn,Conditions,Clouds,dailyrainin,SoftwareType,DateUTC
2013-08-24 00:01:00,48.8,46.3,30.21,SW,224,0.0,0.0,91,0.00,,,0.00,Wunderground v.1.13,2013-08-24 04:01:00,
2013-08-24 00:02:00,48.8,46.3,30.21,SW,224,0.0,0.0,91,0.00,,,0.00,Wunderground v.1.13,2013-08-24 04:02:00,
2013-08-24 00:03:00,48.8,46.3,30.21,SW,224,0.0,0.0,91,0.00,,,0.00,Wunderground v.1.13,2013-08-24 04:03:00,
2013-08-24 00:06:00,48.7,46.2,30.21,SW,224,0.0,0.0,91,0.00,,,0.00,Wunderground v.1.13,2013-08-24 04:06:00,
2013-08-24 00:08:00,48.6,46.1,30.22,SW,224,0.0,0.0,91,0.00,,,0.00,Wunderground v.1.13,2013-08-24 04:08:00,
2013-08-24 00:14:00,48.3,45.8,30.22,SW,223,0.0,0.0,91,0.00,,,0.00,Wunderground v.1.13,2013-08-24 04:14:00,
2013-08-24 00:19:00,48.2,45.7,30.22,SW,224,0.0,0.0,91,0.00,,,0.00,Wunderground v.1.13,2013-08-24 04:19:00,
2013-08-24 00:24:00,48.1,45.6,30.22,SW,224,0.0,0.0,91,0.00,,,0.00,Wunderground v.1.13,2013-08-24 04:24:00,
2013-08-24 00:30:00,47.9,45.4,30.22,SW,223,0.0,0.0,91,0.00,,,0.00,Wunderground v.1.13,2013-08-24 04:30:00,
2013-08-24 00:35:00,47.8,45.3,30.22,SW,223,0.0,0.0,91,0.00,,,0.00,Wunderground v.1.13,2013-08-24 04:35:00,
2013-08-24 00:40:00,47.7,45.2,30.22,SW,224,0.0,0.0,91,0.00,,,0.00,Wunderground v.1.13,2013-08-24 04:40:00,
2013-08-24 00:45:00,47.7,45.2,30.22,SW,224,0.0,0.0,91,0.00,,,0.00,Wunderground v.1.13,2013-08-24 04:45:00,
2013-08-24 00:51:00,47.6,45.4,30.22,SW,224,0.0,0.0,92,0.00,,,0.00,Wunderground v.1.13,2013-08-24 04:51:00,
2013-08-24 00:56:00,47.6,45.4,30.23,SW,224,0.0,0.0,92,0.00,,,0.00,Wunderground v.1.13,2013-08-24 04:56:00,
2013-08-24 01:02:00,47.4,44.9,30.22,SW,224,0.0,0.0,91,0.00,,,0.00,Wunderground v.1.13,2013-08-24 05:02:00,
2013-08-24 01:08:00,47.0,44.5,30.23,SW,223,0.0,0.0,91,0.00,,,0.00,Wunderground v.1.13,2013-08-24 05:08:00,
2013-08-24 01:13:00,46.8,44.3,30.23,SW,224,0.0,0.0,91,0.00,,,0.00,Wunderground v.1.13,2013-08-24 05:13:00,
2013-08-24 01:19:00,46.8,44.6,30.23,SW,223,0.0,0.0,92,0.00,,,0.00,Wunderground v.1.13,2013-08-24 05:19:00,
2013-08-24 01:24:00,46.9,44.7,30.23,SW,224,0.0,0.0,92,0.00,,,0.00,Wunderground v.1.13,2013-08-24 05:24:00,
2013-08-24 01:29:00,46.9,44.7,30.23,SW,224,0.0,0.0,92,0.00,,,0.00,Wunderground v.1.13,2013-08-24 05:29:00,
2013-08-24 01:35:00,46.7,44.5,30.23,SW,223,0.0,0.0,92,0.00,,,0.00,Wunderground v.1.13,2013-08-24 05:35:00,
2013-08-24 01:41:00,46.6,44.4,30.23,SW,224,0.0,0.0,92,0.00,,,0.00,Wunderground v.1.13,2013-08-24 05:41:00,
2013-08-24 01:46:00,46.5,44.3,30.23,SW,224,0.0,0.0,92,0.00,,,0.00,Wunderground v.1.13,2013-08-24 05:46:00,
2013-08-24 01:52:00,46.3,44.1,30.23,SW,224,0.0,0.0,92,0.00,,,0.00,Wunderground v.1.13,2013-08-24 05:52:00,
2013-08-24 01:57:00,46.2,44.0,30.23,SW,224,0.0,0.0,92,0.00,,,0.00,Wunderground v.1.13,2013-08-24 05:57:00,
2013-08-24 02:02:00,46.2,44.0,30.23,SW,224,0.0,0.0,92,0.00,,,0.00,Wunderground v.1.13,2013-08-24 06:02:00,
2013-08-24 02:07:00,46.3,44.1,30.23,SW,223,0.0,0.0,92,0.00,,,0.00,Wunderground v.1.13,2013-08-24 06:07:00,
2013-08-24 02:12:00,46.2,44.0,30.23,SW,224,0.0,0.0,92,0.00,,,0.00,Wunderground v.1.13,2013-08-24 06:12:00,
2013-08-24 02:17:00,46.0,43.8,30.23,SW,224,0.0,0.0,92,0.00,,,0.00,Wunderground v.1.13,2013-08-24 06:17:00,
2013-08-24 02:23:00,45.9,43.7,30.23,SW,224,0.0,0.0,92,0.00,,,0.00,Wunderground v.1.13,2013-08-24 06:23:00,
2013-08-24 02:28:00,45.9,43.7,30.23,SW,223,0.0,0.0,92,0.00,,,0.00,Wunderground v.1.13,2013-08-24 06:28:00,
2013-08-24 02:33:00,45.7,43.5,30.23,SW,224,0.0,0.0,92,0.00,,,0.00,Wunderground v.1.13,2013-08-24 06:33:00,
2013-08-24 02:38:00,46.1,43.9,30.23,SW,224,0.0,0.0,92,0.00,,,0.00,Wunderground v.1.13,2013-08-24 06:38:00,
2013-08-24 02:43:00,46.1,43.9,30.24,SW,224,0.0,0.0,92,0.00,,,0.00,Wunderground v.1.13,2013-08-24 06:43:00,
2013-08-24 02:48:00,46.0,43.8,30.24,SW,223,0.0,0.0,92,0.00,,,0.00,Wunderground v.1.13,2013-08-24 06:48:00,
2013-08-24 02:53:00,46.0,43.8,30.25,SW,224,0.0,0.0,92,0.00,,,0.00,Wunderground v.1.13,2013-08-24 06:53:00,
2013-08-24 02:58:00,46.0,43.8,30.25,SW,224,0.0,0.0,92,0.00,,,0.00,Wunderground v.1.13,2013-08-24 06:58:00,
2013-08-24 03:03:00,45.9,43.7,30.25,SW,223,0.0,0.0,92,0.00,,,0.00,Wunderground v.1.13,2013-08-24 07:03:00,
2013-08-24 03:08:00,45.8,43.6,30.25,SW,224,0.0,0.0,92,0.00,,,0.00,Wunderground v.1.13,2013-08-24 07:08:00,
2013-08-24 03:13:00,45.7,43.5,30.25,SW,224,0.0,0.0,92,0.00,,,0.00,Wunderground v.1.13,2013-08-24 07:13:00,
2013-08-24 03:18:00,45.6,43.4,30.25,SW,223,0.0,0.0,92,0.00,,,0.00,Wunderground v.1.13,2013-08-24 07:18:00,
2013-08-24 03:23:00,45.4,43.2,30.25,SW,224,0.0,0.0,92,0.00,,,0.00,Wunderground v.1.13,2013-08-24 07:23:00,
2013-08-24 03:28:00,45.3,43.1,30.26,SW,224,0.0,0.0,92,0.00,,,0.00,Wunderground v.1.13,2013-08-24 07:28:00,
2013-08-24 03:33:00,45.2,43.0,30.26,SW,223,0.0,0.0,92,0.00,,,0.00,Wunderground v.1.13,2013-08-24 07:33:00,
2013-08-24 03:38:00,45.1,42.9,30.26,SW,223,0.0,0.0,92,0.00,,,0.00,Wunderground v.1.13,2013-08-24 07:38:00,
2013-08-24 03:43:00,45.1,42.9,30.26,SW,224,0.0,0.0,92,0.00,,,0.00,Wunderground v.1.13,2013-08-24 07:43:00,
2013-08-24 03:48:00,45.0,42.8,30.26,SW,224,0.0,0.0,92,0.00,,,0.00,Wunderground v.1.13,2013-08-24 07:48:00,
2013-08-24 03:53:00,45.0,42.8,30.26,SW,224,0.0,0.0,92,0.00,,,0.00,Wunderground v.1.13,2013-08-24 07:53:00,
2013-08-24 03:58:00,44.8,42.6,30.27,SW,224,0.0,0.0,92,0.00,,,0.00,Wunderground v.1.13,2013-08-24 07:58:00,
2013-08-24 04:03:00,44.6,42.4,30.27,SW,224,0.0,0.0,92,0.00,,,0.00,Wunderground v.1.13,2013-08-24 08:03:00,
2013-08-24 04:08:00,44.5,42.3,30.27,SW,224,0.0,0.0,92,0.00,,,0.00,Wunderground v.1.13,2013-08-24 08:08:00,
2013-08-24 04:13:00,44.4,42.2,30.27,SW,223,0.0,0.0,92,0.00,,,0.00,Wunderground v.1.13,2013-08-24 08:13:00,
2013-08-24 04:18:00,44.3,42.1,30.28,SW,224,0.0,0.0,92,0.00,,,0.00,Wunderground v.1.13,2013-08-24 08:18:00,
2013-08-24 04:23:00,44.2,42.0,30.28,SW,224,0.0,0.0,92,0.00,,,0.00,Wunderground v.1.13,2013-08-24 08:23:00,
2013-08-24 04:28:00,44.1,41.9,30.28,SW,224,0.0,0.0,92,0.00,,,0.00,Wunderground v.1.13,2013-08-24 08:28:00,
2013-08-24 04:33:00,44.0,41.8,30.29,SW,223,0.0,0.0,92,0.00,,,0.00,Wunderground v.1.13,2013-08-24 08:33:00,
2013-08-24 04:38:00,44.0,41.8,30.29,SW,224,0.0,0.0,92,0.00,,,0.00,Wunderground v.1.13,2013-08-24 08:38:00,
2013-08-24 04:43:00,44.3,42.4,30.29,SW,223,0.0,0.0,93,0.00,,,0.00,Wunderground v.1.13,2013-08-24 08:43:00,
2013-08-24 04:48:00,44.6,42.7,30.29,SW,224,0.0,0.0,93,0.00,,,0.00,Wunderground v.1.13,2013-08-24 08:48:00,
2013-08-24 04:53:00,45.0,43.1,30.30,SW,223,0.0,0.0,93,0.00,,,0.00,Wunderground v.1.13,2013-08-24 08:53:00,
2013-08-24 04:58:00,45.1,43.2,30.30,SW,223,0.0,0.0,93,0.00,,,0.01,Wunderground v.1.13,2013-08-24 08:58:00,
2013-08-24 05:04:00,45.2,43.3,30.30,SW,223,0.0,0.0,93,0.00,,,0.01,Wunderground v.1.13,2013-08-24 09:04:00,
2013-08-24 05:09:00,45.3,43.4,30.30,SW,224,0.0,0.0,93,0.00,,,0.01,Wunderground v.1.13,2013-08-24 09:09:00,
2013-08-24 05:14:00,45.4,43.5,30.30,SW,224,0.0,0.0,93,0.00,,,0.01,Wunderground v.1.13,2013-08-24 09:14:00,
2013-08-24 05:20:00,45.2,43.3,30.30,SW,224,0.0,0.0,93,0.00,,,0.01,Wunderground v.1.13,2013-08-24 09:20:00,
2013-08-24 05:25:00,45.0,43.1,30.31,SW,224,0.0,0.0,93,0.00,,,0.01,Wunderground v.1.13,2013-08-24 09:25:00,
2013-08-24 05:30:00,45.1,43.2,30.31,SW,224,0.0,0.0,93,0.00,,,0.01,Wunderground v.1.13,2013-08-24 09:30:00,
2013-08-24 05:35:00,45.1,43.2,30.31,SW,224,0.0,0.0,93,0.00,,,0.01,Wunderground v.1.13,2013-08-24 09:35:00,
2013-08-24 05:40:00,45.2,43.3,30.31,SW,223,0.0,0.0,93,0.00,,,0.01,Wunderground v.1.13,2013-08-24 09:40:00,
2013-08-24 05:45:00,45.4,43.5,30.31,SW,224,0.0,0.0,93,0.00,,,0.01,Wunderground v.1.13,2013-08-24 09:45:00,
2013-08-24 05:50:00,45.6,43.7,30.31,SW,223,0.0,0.0,93,0.00,,,0.01,Wunderground v.1.13,2013-08-24 09:50:00,
2013-08-24 05:55:00,45.7,43.8,30.32,SW,223,0.0,0.0,93,0.00,,,0.01,Wunderground v.1.13,2013-08-24 09:55:00,
2013-08-24 06:00:00,45.7,43.8,30.32,SW,224,0.0,0.0,93,0.00,,,0.01,Wunderground v.1.13,2013-08-24 10:00:00,
2013-08-24 06:05:00,45.8,43.9,30.32,SW,224,0.0,0.0,93,0.00,,,0.01,Wunderground v.1.13,2013-08-24 10:05:00,
2013-08-24 06:10:00,46.0,44.1,30.32,SW,223,0.0,0.0,93,0.00,,,0.01,Wunderground v.1.13,2013-08-24 10:10:00,
2013-08-24 06:15:00,46.1,44.2,30.32,SW,224,0.0,0.0,93,0.00,,,0.01,Wunderground v.1.13,2013-08-24 10:15:00,
2013-08-24 06:20:00,46.3,44.4,30.33,SW,223,0.0,0.0,93,0.00,,,0.01,Wunderground v.1.13,2013-08-24 10:20:00,
2013-08-24 06:25:00,46.5,44.6,30.33,SW,223,0.0,0.0,93,0.00,,,0.01,Wunderground v.1.13,2013-08-24 10:25:00,
2013-08-24 06:30:00,46.7,44.8,30.33,SW,224,0.0,0.0,93,0.00,,,0.01,Wunderground v.1.13,2013-08-24 10:30:00,
2013-08-24 06:35:00,47.0,45.1,30.33,SW,224,0.0,0.0,93,0.00,,,0.01,Wunderground v.1.13,2013-08-24 10:35:00,
2013-08-24 06:40:00,47.1,45.2,30.34,SW,224,0.0,0.0,93,0.00,,,0.01,Wunderground v.1.13,2013-08-24 10:40:00,
2013-08-24 06:45:00,47.3,45.4,30.34,SW,224,0.0,0.0,93,0.00,,,0.01,Wunderground v.1.13,2013-08-24 10:45:00,
2013-08-24 06:50:00,47.4,45.5,30.34,SW,224,0.0,0.0,93,0.00,,,0.01,Wunderground v.1.13,2013-08-24 10:50:00,
2013-08-24 06:55:00,47.6,45.7,30.34,SW,223,0.0,0.0,93,0.00,,,0.01,Wunderground v.1.13,2013-08-24 10:55:00,
2013-08-24 07:00:00,47.7,45.8,30.34,SW,223,0.0,0.0,93,0.00,,,0.01,Wunderground v.1.13,2013-08-24 11:00:00,
2013-08-24 07:05:00,47.6,45.7,30.34,SW,223,0.0,0.0,93,0.00,,,0.01,Wunderground v.1.13,2013-08-24 11:05:00,
2013-08-24 07:10:00,47.8,45.9,30.35,SW,225,0.0,0.0,93,0.00,,,0.01,Wunderground v.1.13,2013-08-24 11:10:00,
2013-08-24 07:15:00,47.9,46.0,30.35,SW,215,0.0,0.0,93,0.00,,,0.01,Wunderground v.1.13,2013-08-24 11:15:00,
2013-08-24 07:20:00,48.0,46.1,30.35,SW,217,0.0,0.0,93,0.00,,,0.01,Wunderground v.1.13,2013-08-24 11:20:00,
2013-08-24 07:25:00,48.1,46.2,30.35,South,181,0.0,0.0,93,0.00,,,0.01,Wunderground v.1.13,2013-08-24 11:25:00,
2013-08-24 07:30:00,48.2,47.7,30.35,South,181,0.0,0.0,98,0.00,,,0.01,Wunderground v.1.13,2013-08-24 11:30:00,
2013-08-24 07:35:00,48.3,46.4,30.35,NE,45,1.0,1.0,93,0.00,,,0.01,Wunderground v.1.13,2013-08-24 11:35:00,
2013-08-24 07:40:00,48.2,46.3,30.36,NE,46,0.0,0.0,93,0.00,,,0.01,Wunderground v.1.13,2013-08-24 11:40:00,
2013-08-24 07:45:00,48.2,47.7,30.36,NE,45,0.0,0.0,98,0.00,,,0.01,Wunderground v.1.13,2013-08-24 11:45:00,
2013-08-24 07:50:00,48.2,46.3,30.36,NE,45,1.0,1.0,93,0.00,,,0.01,Wunderground v.1.13,2013-08-24 11:50:00,
2013-08-24 07:55:00,48.2,47.7,30.36,NE,45,0.0,0.0,98,0.00,,,0.01,Wunderground v.1.13,2013-08-24 11:55:00,
2013-08-24 08:01:00,48.3,46.4,30.36,NE,45,0.0,1.0,93,0.00,,,0.01,Wunderground v.1.13,2013-08-24 12:01:00,
2013-08-24 08:06:00,48.5,46.6,30.37,NE,45,0.0,0.0,93,0.00,,,0.01,Wunderground v.1.13,2013-08-24 12:06:00,
2013-08-24 08:11:00,48.7,46.8,30.36,NE,45,0.0,2.0,93,0.00,,,0.01,Wunderground v.1.13,2013-08-24 12:11:00,
2013-08-24 08:16:00,49.0,47.3,30.36,NE,45,0.0,1.0,94,0.00,,,0.01,Wunderground v.1.13,2013-08-24 12:16:00,
2013-08-24 08:21:00,49.2,47.3,30.36,NE,45,0.0,0.0,93,0.00,,,0.01,Wunderground v.1.13,2013-08-24 12:21:00,
2013-08-24 08:26:00,49.2,47.3,30.36,NE,45,0.0,2.0,93,0.00,,,0.01,Wunderground v.1.13,2013-08-24 12:26:00,
2013-08-24 08:31:00,49.7,48.0,30.36,NE,45,0.0,2.0,94,0.00,,,0.01,Wunderground v.1.13,2013-08-24 12:31:00,
2013-08-24 08:36:00,50.3,48.6,30.36,NE,45,0.0,0.0,94,0.00,,,0.01,Wunderground v.1.13,2013-08-24 12:36:00,
2013-08-24 08:42:00,50.7,48.7,30.36,NE,45,0.0,0.0,93,0.00,,,0.01,Wunderground v.1.13,2013-08-24 12:42:00,
2013-08-24 08:47:00,51.0,49.3,30.36,NE,42,0.0,2.0,94,0.00,,,0.01,Wunderground v.1.13,2013-08-24 12:47:00,
2013-08-24 08:52:00,51.6,49.9,30.37,NNE,14,0.0,1.0,94,0.00,,,0.01,Wunderground v.1.13,2013-08-24 12:52:00,
2013-08-24 08:57:00,52.4,50.7,30.37,NNE,14,0.0,0.0,94,0.00,,,0.01,Wunderground v.1.13,2013-08-24 12:57:00,
2013-08-24 09:02:00,52.9,51.2,30.37,NNE,14,1.0,2.0,94,0.00,,,0.01,Wunderground v.1.13,2013-08-24 13:02:00,
2013-08-24 09:07:00,53.0,51.3,30.37,NNW,333,0.0,2.0,94,0.00,,,0.01,Wunderground v.1.13,2013-08-24 13:07:00,
2013-08-24 09:12:00,53.2,51.5,30.37,NNW,333,0.0,2.0,94,0.00,,,0.01,Wunderground v.1.13,2013-08-24 13:12:00,
2013-08-24 09:17:00,53.9,52.2,30.37,NNW,333,0.0,1.0,94,0.00,,,0.01,Wunderground v.1.13,2013-08-24 13:17:00,
2013-08-24 09:22:00,54.7,53.0,30.37,NNW,338,0.0,2.0,94,0.00,,,0.01,Wunderground v.1.13,2013-08-24 13:22:00,
2013-08-24 09:27:00,55.3,53.3,30.37,NNW,339,1.0,3.0,93,0.00,,,0.01,Wunderground v.1.13,2013-08-24 13:27:00,
2013-08-24 09:32:00,55.9,53.9,30.37,NNW,339,0.0,1.0,93,0.00,,,0.01,Wunderground v.1.13,2013-08-24 13:32:00,
2013-08-24 09:37:00,56.9,54.6,30.37,NNW,340,1.0,1.0,92,0.00,,,0.01,Wunderground v.1.13,2013-08-24 13:37:00,
2013-08-24 09:42:00,57.8,54.6,30.37,East,91,0.0,1.0,89,0.00,,,0.01,Wunderground v.1.13,2013-08-24 13:42:00,
2013-08-24 09:47:00,58.7,54.5,30.37,East,91,1.0,1.0,86,0.00,,,0.01,Wunderground v.1.13,2013-08-24 13:47:00,
2013-08-24 09:52:00,59.1,53.9,30.37,East,99,0.0,1.0,83,0.00,,,0.01,Wunderground v.1.13,2013-08-24 13:52:00,
2013-08-24 09:57:00,59.9,54.7,30.36,ESE,113,1.0,2.0,83,0.00,,,0.01,Wunderground v.1.13,2013-08-24 13:57:00,
2013-08-24 10:02:00,60.5,53.3,30.36,NW,317,0.0,2.0,77,0.00,,,0.01,Wunderground v.1.13,2013-08-24 14:02:00,
2013-08-24 10:07:00,61.2,55.7,30.36,NW,317,0.0,2.0,82,0.00,,,0.01,Wunderground v.1.13,2013-08-24 14:07:00,
2013-08-24 10:12:00,62.0,55.1,30.36,NW,317,0.0,1.0,78,0.00,,,0.01,Wunderground v.1.13,2013-08-24 14:12:00,
2013-08-24 10:17:00,62.8,55.1,30.36,WNW,298,0.0,2.0,76,0.00,,,0.01,Wunderground v.1.13,2013-08-24 14:17:00,
2013-08-24 10:22:00,63.4,55.0,30.36,WNW,302,1.0,3.0,74,0.00,,,0.01,Wunderground v.1.13,2013-08-24 14:22:00,
2013-08-24 10:27:00,64.1,54.9,30.36,North,350,0.0,2.0,72,0.00,,,0.01,Wunderground v.1.13,2013-08-24 14:27:00,
2013-08-24 10:32:00,64.9,56.0,30.36,North,351,0.0,1.0,73,0.00,,,0.01,Wunderground v.1.13,2013-08-24 14:32:00,
2013-08-24 10:37:00,65.6,56.3,30.36,North,351,1.0,4.0,72,0.00,,,0.01,Wunderground v.1.13,2013-08-24 14:37:00,
2013-08-24 10:42:00,65.4,53.7,30.36,WNW,302,0.0,4.0,66,0.00,,,0.01,Wunderground v.1.13,2013-08-24 14:42:00,
2013-08-24 10:47:00,65.6,54.3,30.36,NNE,17,0.0,4.0,67,0.00,,,0.01,Wunderground v.1.13,2013-08-24 14:47:00,
2013-08-24 10:52:00,65.7,51.4,30.36,NNE,17,0.0,2.0,60,0.00,,,0.01,Wunderground v.1.13,2013-08-24 14:52:00,
2013-08-24 10:58:00,66.2,52.8,30.36,NNE,15,3.0,3.0,62,0.00,,,0.01,Wunderground v.1.13,2013-08-24 14:58:00,
2013-08-24 11:03:00,66.5,50.3,30.36,North,11,0.0,3.0,56,0.00,,,0.01,Wunderground v.1.13,2013-08-24 15:03:00,
2013-08-24 11:08:00,66.8,51.1,30.36,NW,319,3.0,5.0,57,0.00,,,0.01,Wunderground v.1.13,2013-08-24 15:08:00,
2013-08-24 11:13:00,67.2,51.0,30.36,NNE,19,2.0,3.0,56,0.00,,,0.01,Wunderground v.1.13,2013-08-24 15:13:00,
2013-08-24 11:18:00,67.3,50.1,30.36,North,351,1.0,5.0,54,0.00,,,0.01,Wunderground v.1.13,2013-08-24 15:18:00,
2013-08-24 11:23:00,67.3,49.6,30.36,NNW,333,0.0,4.0,53,0.00,,,0.01,Wunderground v.1.13,2013-08-24 15:23:00,
2013-08-24 11:28:00,67.4,48.6,30.36,West,260,1.0,5.0,51,0.00,,,0.01,Wunderground v.1.13,2013-08-24 15:28:00,
2013-08-24 11:33:00,67.7,49.4,30.36,West,260,0.0,2.0,52,0.00,,,0.01,Wunderground v.1.13,2013-08-24 15:33:00,
2013-08-24 11:39:00,68.3,48.4,30.36,SSW,206,0.0,3.0,49,0.00,,,0.01,Wunderground v.1.13,2013-08-24 15:39:00,
2013-08-24 11:44:00,68.6,47.6,30.35,WNW,292,3.0,6.0,47,0.00,,,0.01,Wunderground v.1.13,2013-08-24 15:44:00,
2013-08-24 11:49:00,68.5,49.7,30.35,SSW,209,2.0,7.0,51,0.00,,,0.01,Wunderground v.1.13,2013-08-24 15:49:00,
2013-08-24 11:54:00,68.5,49.1,30.35,NW,304,0.0,5.0,50,0.00,,,0.01,Wunderground v.1.13,2013-08-24 15:54:00,
2013-08-24 11:59:00,68.5,49.1,30.35,NNW,340,0.0,2.0,50,0.00,,,0.01,Wunderground v.1.13,2013-08-24 15:59:00,
2013-08-24 12:04:00,68.6,49.2,30.35,NNE,12,1.0,1.0,50,0.00,,,0.01,Wunderground v.1.13,2013-08-24 16:04:00,
2013-08-24 12:09:00,68.8,51.5,30.35,NNE,12,0.0,1.0,54,0.00,,,0.01,Wunderground v.1.13,2013-08-24 16:09:00,
2013-08-24 12:14:00,68.9,51.1,30.35,North,355,2.0,2.0,53,0.00,,,0.01,Wunderground v.1.13,2013-08-24 16:14:00,
2013-08-24 12:19:00,68.9,49.5,30.35,SSE,148,1.0,2.0,50,0.00,,,0.01,Wunderground v.1.13,2013-08-24 16:19:00,
2013-08-24 12:24:00,69.0,50.1,30.35,SW,236,2.0,2.0,51,0.00,,,0.01,Wunderground v.1.13,2013-08-24 16:24:00,
2013-08-24 12:30:00,69.1,49.1,30.35,WNW,284,0.0,2.0,49,0.00,,,0.01,Wunderground v.1.13,2013-08-24 16:30:00,
2013-08-24 12:35:00,68.9,50.0,30.34,SSE,157,2.0,2.0,51,0.00,,,0.01,Wunderground v.1.13,2013-08-24 16:35:00,
2013-08-24 12:40:00,68.4,50.1,30.34,SW,214,3.0,3.0,52,0.00,,,0.01,Wunderground v.1.13,2013-08-24 16:40:00,
2013-08-24 12:45:00,68.7,50.9,30.34,SW,215,2.0,2.0,53,0.00,,,0.01,Wunderground v.1.13,2013-08-24 16:45:00,
2013-08-24 12:50:00,69.4,52.0,30.34,ESE,115,3.0,3.0,54,0.00,,,0.01,Wunderground v.1.13,2013-08-24 16:50:00,
2013-08-24 12:55:00,69.8,49.8,30.34,SSE,161,4.0,4.0,49,0.00,,,0.01,Wunderground v.1.13,2013-08-24 16:55:00,
2013-08-24 13:00:00,69.9,51.5,30.34,SSW,207,0.0,1.0,52,0.00,,,0.01,Wunderground v.1.13,2013-08-24 17:00:00,
2013-08-24 13:05:00,70.4,52.4,30.34,SW,224,0.0,1.0,53,0.00,,,0.01,Wunderground v.1.13,2013-08-24 17:05:00,
2013-08-24 13:10:00,71.0,51.4,30.34,WNW,283,2.0,2.0,50,0.00,,,0.01,Wunderground v.1.13,2013-08-24 17:10:00,
2013-08-24 13:15:00,71.1,53.1,30.34,South,189,2.0,3.0,53,0.00,,,0.01,Wunderground v.1.13,2013-08-24 17:15:00,
2013-08-24 13:20:00,70.8,51.2,30.34,South,184,2.0,5.0,50,0.00,,,0.01,Wunderground v.1.13,2013-08-24 17:20:00,
2013-08-24 13:25:00,70.8,51.8,30.34,WSW,238,0.0,2.0,51,0.00,,,0.01,Wunderground v.1.13,2013-08-24 17:25:00,
2013-08-24 13:30:00,71.1,51.5,30.34,NE,36,4.0,4.0,50,0.00,,,0.01,Wunderground v.1.13,2013-08-24 17:30:00,
2013-08-24 13:35:00,71.3,51.7,30.34,South,182,4.0,4.0,50,0.00,,,0.01,Wunderground v.1.13,2013-08-24 17:35:00,
2013-08-24 13:40:00,70.6,50.5,30.34,South,182,1.0,5.0,49,0.00,,,0.01,Wunderground v.1.13,2013-08-24 17:40:00,
2013-08-24 13:45:00,70.9,52.4,30.34,NW,311,2.0,4.0,52,0.00,,,0.01,Wunderground v.1.13,2013-08-24 17:45:00,
2013-08-24 13:50:00,71.5,52.9,30.34,SSW,192,3.0,3.0,52,0.00,,,0.01,Wunderground v.1.13,2013-08-24 17:50:00,
2013-08-24 13:55:00,71.9,51.7,30.34,SW,214,1.0,2.0,49,0.00,,,0.01,Wunderground v.1.13,2013-08-24 17:55:00,
2013-08-24 14:00:00,72.0,52.3,30.34,NW,317,0.0,3.0,50,0.00,,,0.01,Wunderground v.1.13,2013-08-24 18:00:00,
2013-08-24 14:05:00,72.2,51.4,30.34,North,10,1.0,4.0,48,0.00,,,0.01,Wunderground v.1.13,2013-08-24 18:05:00,
2013-08-24 14:10:00,72.3,52.1,30.33,SSW,213,1.0,2.0,49,0.00,,,0.01,Wunderground v.1.13,2013-08-24 18:10:00,
2013-08-24 14:15:00,72.6,53.4,30.33,South,191,2.0,2.0,51,0.00,,,0.01,Wunderground v.1.13,2013-08-24 18:15:00,
2013-08-24 14:20:00,72.8,51.4,30.33,SW,227,0.0,1.0,47,0.00,,,0.01,Wunderground v.1.13,2013-08-24 18:20:00,
2013-08-24 14:25:00,73.2,52.9,30.33,SW,227,1.0,2.0,49,0.00,,,0.01,Wunderground v.1.13,2013-08-24 18:25:00,
2013-08-24 14:30:00,73.5,53.2,30.33,SW,219,2.0,3.0,49,0.00,,,0.01,Wunderground v.1.13,2013-08-24 18:30:00,
2013-08-24 14:35:00,73.5,52.6,30.33,South,180,1.0,3.0,48,0.00,,,0.01,Wunderground v.1.13,2013-08-24 18:35:00,
2013-08-24 14:40:00,73.7,53.9,30.32,South,183,0.0,1.0,50,0.00,,,0.01,Wunderground v.1.13,2013-08-24 18:40:00,
2013-08-24 14:45:00,73.8,52.9,30.32,SSW,200,1.0,1.0,48,0.00,,,0.01,Wunderground v.1.13,2013-08-24 18:45:00,
2013-08-24 14:50:00,73.8,55.1,30.32,South,185,4.0,4.0,52,0.00,,,0.01,Wunderground v.1.13,2013-08-24 18:50:00,
2013-08-24 14:56:00,73.7,53.3,30.32,SSW,205,0.0,1.0,49,0.00,,,0.01,Wunderground v.1.13,2013-08-24 18:56:00,
2013-08-24 15:01:00,74.1,51.4,30.32,ESE,122,0.0,1.0,45,0.00,,,0.01,Wunderground v.1.13,2013-08-24 19:01:00,
2013-08-24 15:06:00,74.4,53.4,30.32,SSE,161,2.0,2.0,48,0.00,,,0.01,Wunderground v.1.13,2013-08-24 19:06:00,
2013-08-24 15:11:00,74.8,52.6,30.32,NW,306,1.0,2.0,46,0.00,,,0.01,Wunderground v.1.13,2013-08-24 19:11:00,
2013-08-24 15:16:00,74.9,52.1,30.32,North,355,0.0,4.0,45,0.00,,,0.01,Wunderground v.1.13,2013-08-24 19:16:00,
2013-08-24 15:21:00,74.8,53.8,30.32,SSW,195,1.0,3.0,48,0.00,,,0.01,Wunderground v.1.13,2013-08-24 19:21:00,
2013-08-24 15:26:00,75.0,51.6,30.32,SSW,197,0.0,2.0,44,0.00,,,0.01,Wunderground v.1.13,2013-08-24 19:26:00,
2013-08-24 15:31:00,75.4,56.5,30.32,South,180,2.0,3.0,52,0.00,,,0.01,Wunderground v.1.13,2013-08-24 19:31:00,
2013-08-24 15:36:00,75.1,52.9,30.32,SSW,201,3.0,4.0,46,0.00,,,0.01,Wunderground v.1.13,2013-08-24 19:36:00,
2013-08-24 15:41:00,74.8,57.0,30.31,SSW,201,1.0,3.0,54,0.00,,,0.01,Wunderground v.1.13,2013-08-24 19:41:00,
2013-08-24 15:46:00,74.9,53.9,30.32,South,171,2.0,3.0,48,0.00,,,0.01,Wunderground v.1.13,2013-08-24 19:46:00,
2013-08-24 15:51:00,74.9,53.3,30.32,South,175,0.0,2.0,47,0.00,,,0.01,Wunderground v.1.13,2013-08-24 19:51:00,
2013-08-24 15:57:00,75.0,51.0,30.31,SSW,211,0.0,9.0,43,0.00,,,0.01,Wunderground v.1.13,2013-08-24 19:57:00,
2013-08-24 16:02:00,74.9,52.1,30.31,WNW,292,2.0,3.0,45,0.00,,,0.01,Wunderground v.1.13,2013-08-24 20:02:00,
2013-08-24 16:07:00,74.8,52.0,30.31,NNE,15,3.0,5.0,45,0.00,,,0.01,Wunderground v.1.13,2013-08-24 20:07:00,
2013-08-24 16:12:00,74.9,52.7,30.31,ENE,76,1.0,3.0,46,0.00,,,0.01,Wunderground v.1.13,2013-08-24 20:12:00,
2013-08-24 16:18:00,75.1,50.4,30.31,NW,304,0.0,3.0,42,0.00,,,0.01,Wunderground v.1.13,2013-08-24 20:18:00,
2013-08-24 16:23:00,74.8,51.4,30.31,SSW,210,1.0,5.0,44,0.00,,,0.01,Wunderground v.1.13,2013-08-24 20:23:00,
2013-08-24 16:28:00,74.7,56.4,30.31,SSW,210,0.0,4.0,53,0.00,,,0.01,Wunderground v.1.13,2013-08-24 20:28:00,
2013-08-24 16:33:00,73.8,55.1,30.31,SSW,210,0.0,4.0,52,0.00,,,0.01,Wunderground v.1.13,2013-08-24 20:33:00,
2013-08-24 16:38:00,72.9,56.3,30.31,SSW,210,2.0,3.0,56,0.00,,,0.01,Wunderground v.1.13,2013-08-24 20:38:00,
2013-08-24 16:43:00,71.9,52.8,30.31,South,186,1.0,4.0,51,0.00,,,0.01,Wunderground v.1.13,2013-08-24 20:43:00,
2013-08-24 16:48:00,71.3,55.3,30.31,SW,215,1.0,5.0,57,0.00,,,0.01,Wunderground v.1.13,2013-08-24 20:48:00,
2013-08-24 16:53:00,71.0,53.5,30.31,WSW,254,1.0,5.0,54,0.00,,,0.01,Wunderground v.1.13,2013-08-24 20:53:00,
2013-08-24 16:58:00,70.6,54.6,30.31,SW,222,2.0,4.0,57,0.00,,,0.01,Wunderground v.1.13,2013-08-24 20:58:00,
2013-08-24 17:03:00,70.2,53.3,30.31,SW,221,2.0,4.0,55,0.00,,,0.01,Wunderground v.1.13,2013-08-24 21:03:00,
2013-08-24 17:08:00,68.8,52.0,30.31,SW,222,2.0,4.0,55,0.00,,,0.01,Wunderground v.1.13,2013-08-24 21:08:00,
2013-08-24 17:14:00,68.0,52.7,30.31,SW,222,2.0,4.0,58,0.00,,,0.01,Wunderground v.1.13,2013-08-24 21:14:00,
2013-08-24 17:19:00,67.6,51.8,30.31,SW,221,3.0,5.0,57,0.00,,,0.01,Wunderground v.1.13,2013-08-24 21:19:00,
2013-08-24 17:24:00,67.3,52.0,30.31,SW,221,1.0,3.0,58,0.00,,,0.01,Wunderground v.1.13,2013-08-24 21:24:00,
2013-08-24 17:29:00,67.3,52.5,30.31,SW,222,1.0,3.0,59,0.00,,,0.01,Wunderground v.1.13,2013-08-24 21:29:00,
2013-08-24 17:34:00,67.1,54.1,30.31,SW,221,1.0,3.0,63,0.00,,,0.01,Wunderground v.1.13,2013-08-24 21:34:00,
2013-08-24 17:39:00,66.7,52.8,30.31,SW,221,0.0,4.0,61,0.00,,,0.01,Wunderground v.1.13,2013-08-24 21:39:00,
2013-08-24 17:44:00,66.5,52.6,30.31,South,185,3.0,3.0,61,0.00,,,0.01,Wunderground v.1.13,2013-08-24 21:44:00,
2013-08-24 17:49:00,66.2,51.0,30.31,SSW,200,0.0,4.0,58,0.00,,,0.01,Wunderground v.1.13,2013-08-24 21:49:00,
2013-08-24 17:54:00,66.1,52.7,30.31,SSW,200,1.0,2.0,62,0.00,,,0.01,Wunderground v.1.13,2013-08-24 21:54:00,
2013-08-24 17:59:00,66.0,53.0,30.31,SSW,200,0.0,1.0,63,0.00,,,0.01,Wunderground v.1.13,2013-08-24 21:59:00,
2013-08-24 18:04:00,65.9,52.1,30.31,SSW,200,0.0,1.0,61,0.00,,,0.01,Wunderground v.1.13,2013-08-24 22:04:00,
2013-08-24 18:09:00,65.5,52.6,30.31,SSW,200,0.0,1.0,63,0.00,,,0.01,Wunderground v.1.13,2013-08-24 22:09:00,
2013-08-24 18:14:00,64.8,50.6,30.31,SSW,200,2.0,2.0,60,0.00,,,0.01,Wunderground v.1.13,2013-08-24 22:14:00,
2013-08-24 18:19:00,64.3,51.0,30.31,SSW,200,0.0,0.0,62,0.00,,,0.01,Wunderground v.1.13,2013-08-24 22:19:00,
2013-08-24 18:24:00,63.7,49.5,30.31,SSW,200,1.0,1.0,60,0.00,,,0.01,Wunderground v.1.13,2013-08-24 22:24:00,
2013-08-24 18:29:00,63.2,50.4,30.31,SSW,200,0.0,0.0,63,0.00,,,0.01,Wunderground v.1.13,2013-08-24 22:29:00,
2013-08-24 18:34:00,62.7,50.3,30.31,SSW,200,0.0,0.0,64,0.00,,,0.01,Wunderground v.1.13,2013-08-24 22:34:00,
2013-08-24 18:39:00,62.3,50.8,30.31,SSW,200,0.0,0.0,66,0.00,,,0.01,Wunderground v.1.13,2013-08-24 22:39:00,
2013-08-24 18:44:00,61.9,50.8,30.31,SSW,200,0.0,0.0,67,0.00,,,0.01,Wunderground v.1.13,2013-08-24 22:44:00,
2013-08-24 18:49:00,61.5,51.6,30.31,SSW,200,0.0,0.0,70,0.00,,,0.01,Wunderground v.1.13,2013-08-24 22:49:00,
2013-08-24 18:54:00,61.1,50.5,30.31,SSW,200,0.0,0.0,68,0.00,,,0.01,Wunderground v.1.13,2013-08-24 22:54:00,
2013-08-24 18:59:00,61.0,50.4,30.31,SSW,200,0.0,0.0,68,0.00,,,0.01,Wunderground v.1.13,2013-08-24 22:59:00,
2013-08-24 19:04:00,60.7,50.1,30.32,SSW,200,0.0,0.0,68,0.00,,,0.01,Wunderground v.1.13,2013-08-24 23:04:00,
2013-08-24 19:10:00,60.5,50.3,30.32,SSW,200,0.0,0.0,69,0.00,,,0.01,Wunderground v.1.13,2013-08-24 23:10:00,
2013-08-24 19:15:00,60.1,51.0,30.32,SSW,202,0.0,0.0,72,0.00,,,0.01,Wunderground v.1.13,2013-08-24 23:15:00,
2013-08-24 19:20:00,59.6,51.7,30.32,SSW,202,0.0,0.0,75,0.00,,,0.01,Wunderground v.1.13,2013-08-24 23:20:00,
2013-08-24 19:25:00,59.0,51.1,30.32,SSW,202,0.0,0.0,75,0.00,,,0.01,Wunderground v.1.13,2013-08-24 23:25:00,
2013-08-24 19:30:00,58.8,51.2,30.33,SSW,202,0.0,0.0,76,0.00,,,0.01,Wunderground v.1.13,2013-08-24 23:30:00,
2013-08-24 19:35:00,58.4,50.9,30.33,SSW,202,0.0,0.0,76,0.00,,,0.01,Wunderground v.1.13,2013-08-24 23:35:00,
2013-08-24 19:40:00,58.0,50.8,30.33,SSW,202,0.0,0.0,77,0.00,,,0.01,Wunderground v.1.13,2013-08-24 23:40:00,
2013-08-24 19:45:00,57.6,50.4,30.33,SSW,202,0.0,0.0,77,0.00,,,0.01,Wunderground v.1.13,2013-08-24 23:45:00,
2013-08-24 19:50:00,57.3,50.5,30.33,SSW,202,0.0,0.0,78,0.00,,,0.01,Wunderground v.1.13,2013-08-24 23:50:00,
2013-08-24 19:55:00,57.1,50.6,30.33,SSW,202,0.0,0.0,79,0.00,,,0.01,Wunderground v.1.13,2013-08-24 23:55:00,
2013-08-24 20:00:00,56.8,50.4,30.34,SSW,202,0.0,0.0,79,0.00,,,0.01,Wunderground v.1.13,2013-08-25 00:00:00,
2013-08-24 20:05:00,56.4,50.0,30.34,SSW,202,0.0,0.0,79,0.00,,,0.01,Wunderground v.1.13,2013-08-25 00:05:00,
2013-08-24 20:10:00,56.1,50.0,30.34,SSW,202,0.0,0.0,80,0.00,,,0.01,Wunderground v.1.13,2013-08-25 00:10:00,
2013-08-24 20:15:00,55.7,49.6,30.34,SSW,202,0.0,0.0,80,0.00,,,0.01,Wunderground v.1.13,2013-08-25 00:15:00,
2013-08-24 20:20:00,55.4,49.7,30.34,SSW,202,0.0,0.0,81,0.00,,,0.01,Wunderground v.1.13,2013-08-25 00:20:00,
2013-08-24 20:25:00,55.2,49.1,30.34,SSW,202,0.0,0.0,80,0.00,,,0.01,Wunderground v.1.13,2013-08-25 00:25:00,
2013-08-24 20:30:00,54.9,48.5,30.35,SSW,202,0.0,0.0,79,0.00,,,0.01,Wunderground v.1.13,2013-08-25 00:30:00,
2013-08-24 20:35:00,54.8,48.7,30.35,SSW,202,0.0,0.0,80,0.00,,,0.01,Wunderground v.1.13,2013-08-25 00:35:00,
2013-08-24 20:41:00,54.6,48.6,30.35,SSW,202,0.0,0.0,80,0.00,,,0.01,Wunderground v.1.13,2013-08-25 00:41:00,
2013-08-24 20:46:00,54.3,47.9,30.35,SSW,202,0.0,0.0,79,0.00,,,0.01,Wunderground v.1.13,2013-08-25 00:46:00,
2013-08-24 20:51:00,54.2,48.2,30.36,SSW,202,0.0,0.0,80,0.00,,,0.01,Wunderground v.1.13,2013-08-25 00:51:00,
2013-08-24 20:56:00,54.0,48.6,30.36,SSW,202,0.0,0.0,82,0.00,,,0.01,Wunderground v.1.13,2013-08-25 00:56:00,
2013-08-24 21:01:00,53.7,48.7,30.36,SSW,202,0.0,0.0,83,0.00,,,0.01,Wunderground v.1.13,2013-08-25 01:01:00,
2013-08-24 21:06:00,53.5,48.5,30.36,SSW,202,0.0,0.0,83,0.00,,,0.01,Wunderground v.1.13,2013-08-25 01:06:00,
2013-08-24 21:11:00,53.3,47.9,30.36,SSW,202,0.0,0.0,82,0.00,,,0.01,Wunderground v.1.13,2013-08-25 01:11:00,
2013-08-24 21:16:00,53.0,47.7,30.36,SSW,202,0.0,0.0,82,0.00,,,0.01,Wunderground v.1.13,2013-08-25 01:16:00,
2013-08-24 21:21:00,52.7,47.7,30.36,SSW,202,0.0,0.0,83,0.00,,,0.01,Wunderground v.1.13,2013-08-25 01:21:00,
2013-08-24 21:26:00,52.5,47.8,30.37,SSW,202,0.0,0.0,84,0.00,,,0.01,Wunderground v.1.13,2013-08-25 01:26:00,
2013-08-24 21:31:00,52.3,47.6,30.37,SSW,202,0.0,0.0,84,0.00,,,0.01,Wunderground v.1.13,2013-08-25 01:31:00,
2013-08-24 21:36:00,52.2,47.8,30.37,SSW,202,0.0,0.0,85,0.00,,,0.01,Wunderground v.1.13,2013-08-25 01:36:00,
2013-08-24 21:41:00,52.1,47.7,30.37,SSW,202,0.0,0.0,85,0.00,,,0.01,Wunderground v.1.13,2013-08-25 01:41:00,
2013-08-24 21:46:00,51.9,47.5,30.37,SSW,202,0.0,0.0,85,0.00,,,0.01,Wunderground v.1.13,2013-08-25 01:46:00,
2013-08-24 21:51:00,51.8,47.7,30.37,SSW,202,0.0,0.0,86,0.00,,,0.01,Wunderground v.1.13,2013-08-25 01:51:00,
2013-08-24 21:56:00,51.7,47.6,30.37,SSW,202,0.0,0.0,86,0.00,,,0.01,Wunderground v.1.13,2013-08-25 01:56:00,
2013-08-24 22:01:00,51.5,47.5,30.38,SSW,202,0.0,0.0,86,0.00,,,0.01,Wunderground v.1.13,2013-08-25 02:01:00,
2013-08-24 22:06:00,51.3,47.6,30.38,SSW,202,0.0,0.0,87,0.00,,,0.01,Wunderground v.1.13,2013-08-25 02:06:00,
2013-08-24 22:11:00,51.2,47.5,30.38,SSW,202,0.0,0.0,87,0.00,,,0.01,Wunderground v.1.13,2013-08-25 02:11:00,
2013-08-24 22:17:00,51.0,47.3,30.38,SSW,202,0.0,0.0,87,0.00,,,0.01,Wunderground v.1.13,2013-08-25 02:17:00,
2013-08-24 22:22:00,50.8,47.4,30.38,SSW,202,0.0,0.0,88,0.00,,,0.01,Wunderground v.1.13,2013-08-25 02:22:00,
2013-08-24 22:27:00,50.7,47.3,30.38,SSW,202,0.0,0.0,88,0.00,,,0.01,Wunderground v.1.13,2013-08-25 02:27:00,
2013-08-24 22:32:00,50.5,47.1,30.38,SSW,202,0.0,0.0,88,0.00,,,0.01,Wunderground v.1.13,2013-08-25 02:32:00,
2013-08-24 22:37:00,50.3,46.9,30.38,SSW,202,0.0,0.0,88,0.00,,,0.01,Wunderground v.1.13,2013-08-25 02:37:00,
2013-08-24 22:42:00,50.1,46.7,30.38,SSW,202,0.0,0.0,88,0.00,,,0.01,Wunderground v.1.13,2013-08-25 02:42:00,
2013-08-24 22:47:00,49.9,46.5,30.38,SSW,202,0.0,0.0,88,0.00,,,0.01,Wunderground v.1.13,2013-08-25 02:47:00,
2013-08-24 22:52:00,49.8,46.4,30.38,SSW,202,0.0,0.0,88,0.00,,,0.01,Wunderground v.1.13,2013-08-25 02:52:00,
2013-08-24 22:57:00,49.7,46.6,30.38,SSW,202,0.0,0.0,89,0.00,,,0.01,Wunderground v.1.13,2013-08-25 02:57:00,
2013-08-24 23:02:00,49.6,46.5,30.38,SSW,202,0.0,0.0,89,0.00,,,0.01,Wunderground v.1.13,2013-08-25 03:02:00,
2013-08-24 23:08:00,49.6,46.5,30.38,SSW,202,0.0,0.0,89,0.00,,,0.01,Wunderground v.1.13,2013-08-25 03:08:00,
2013-08-24 23:12:00,49.5,46.4,30.38,SSW,202,0.0,0.0,89,0.00,,,0.01,Wunderground v.1.13,2013-08-25 03:12:00,
2013-08-24 23:17:00,49.3,46.2,30.38,SSW,202,0.0,0.0,89,0.00,,,0.01,Wunderground v.1.13,2013-08-25 03:17:00,
2013-08-24 23:22:00,49.3,46.2,30.38,SSW,202,0.0,0.0,89,0.00,,,0.01,Wunderground v.1.13,2013-08-25 03:22:00,
2013-08-24 23:28:00,49.2,46.4,30.38,SSW,202,0.0,0.0,90,0.00,,,0.01,Wunderground v.1.13,2013-08-25 03:28:00,
2013-08-24 23:33:00,49.2,46.4,30.38,SSW,202,0.0,0.0,90,0.00,,,0.01,Wunderground v.1.13,2013-08-25 03:33:00,
2013-08-24 23:38:00,49.1,46.3,30.38,SSW,202,0.0,0.0,90,0.00,,,0.01,Wunderground v.1.13,2013-08-25 03:38:00,
2013-08-24 23:43:00,48.9,46.1,30.38,SSW,202,0.0,0.0,90,0.00,,,0.01,Wunderground v.1.13,2013-08-25 03:43:00,
2013-08-24 23:49:00,48.8,46.0,30.38,SSW,202,0.0,0.0,90,0.00,,,0.01,Wunderground v.1.13,2013-08-25 03:49:00,
2013-08-24 23:54:00,48.8,46.0,30.37,SSW,202,0.0,0.0,90,0.00,,,0.01,Wunderground v.1.13,2013-08-25 03:54:00,
2013-08-24 23:59:00,48.8,46.0,30.38,SSW,202,0.0,0.0,90,0.00,,,0.01,Wunderground v.1.13,2013-08-25 03:59:00,